createdAt,value
2023-02-05T00:01:36.674Z,6.50
2023-02-05T00:04:04.229Z,7.68
2023-02-05T00:06:31.288Z,7.38
2023-02-05T00:08:58.909Z,7.40
2023-02-05T00:11:26.580Z,7.10
2023-02-05T00:13:53.966Z,7.40
2023-02-05T00:16:23.646Z,7.35
2023-02-05T00:18:50.986Z,7.15
2023-02-05T00:21:21.921Z,7.10
2023-02-05T00:23:49.823Z,7.53
2023-02-05T00:26:17.590Z,7.88
2023-02-05T00:28:44.944Z,6.95
2023-02-05T00:31:16.905Z,7.13
2023-02-05T00:33:44.229Z,7.60
2023-02-05T00:36:12.981Z,7.32
2023-02-05T00:38:40.472Z,8.10
2023-02-05T00:41:07.676Z,7.78
2023-02-05T00:43:34.688Z,7.35
2023-02-05T00:46:01.789Z,7.30
2023-02-05T00:48:29.029Z,7.50
2023-02-05T00:50:56.119Z,7.60
2023-02-05T00:53:24.119Z,7.45
2023-02-05T00:55:51.483Z,7.18
2023-02-05T00:58:19.046Z,7.00
2023-02-05T01:00:46.385Z,7.65
2023-02-05T01:03:13.766Z,6.45
2023-02-05T01:05:41.212Z,6.78
2023-02-05T01:08:10.881Z,7.30
2023-02-05T01:10:42.757Z,7.15
2023-02-05T01:13:09.605Z,6.90
2023-02-05T01:15:36.760Z,6.78
2023-02-05T01:18:04.020Z,6.53
2023-02-05T01:20:31.004Z,6.93
2023-02-05T01:22:57.896Z,6.25
2023-02-05T01:25:24.879Z,6.45
2023-02-05T01:27:51.738Z,6.40
2023-02-05T01:30:18.773Z,6.22
2023-02-05T01:32:45.830Z,6.13
2023-02-05T01:35:13.166Z,6.43
2023-02-05T01:37:40.216Z,6.35
2023-02-05T01:40:07.493Z,7.00
2023-02-05T01:42:34.472Z,6.88
2023-02-05T01:45:23.862Z,7.30
2023-02-05T01:47:52.599Z,7.50
2023-02-05T01:50:31.448Z,7.75
2023-02-05T01:53:02.747Z,7.72
2023-02-05T01:55:30.958Z,7.55
2023-02-05T01:58:00.355Z,7.20
2023-02-05T02:00:27.463Z,7.07
2023-02-05T02:02:54.438Z,7.22
2023-02-05T02:05:21.438Z,6.88
2023-02-05T02:07:48.668Z,7.10
2023-02-05T02:10:18.439Z,6.78
2023-02-05T02:12:48.500Z,6.53
2023-02-05T02:15:19.487Z,6.45
2023-02-05T02:17:55.344Z,7.05
2023-02-05T02:20:26.904Z,6.35
2023-02-05T02:23:15.246Z,6.75
2023-02-05T02:25:42.172Z,6.63
2023-02-05T02:28:57.217Z,6.32
2023-02-05T02:32:01.560Z,6.18
2023-02-05T02:34:38.234Z,6.15
2023-02-05T02:37:18.956Z,6.28
2023-02-05T02:40:06.999Z,6.05
2023-02-05T02:42:55.356Z,6.43
2023-02-05T02:45:26.851Z,6.43
2023-02-05T02:47:57.273Z,6.35
2023-02-05T02:50:33.184Z,6.28
2023-02-05T02:53:04.815Z,6.60
2023-02-05T02:55:37.548Z,6.03
2023-02-05T02:58:08.969Z,6.15
2023-02-05T03:00:38.377Z,6.57
2023-02-05T03:03:08.574Z,6.97
2023-02-05T03:05:41.327Z,6.10
2023-02-05T03:08:14.128Z,5.93
2023-02-05T03:10:56.455Z,5.93
2023-02-05T03:13:31.823Z,5.82
2023-02-05T03:15:58.941Z,5.55
2023-02-05T03:18:26.093Z,5.65
2023-02-05T03:20:59.008Z,5.68
2023-02-05T03:23:28.135Z,5.65
2023-02-05T03:25:55.106Z,5.63
2023-02-05T03:28:22.705Z,5.82
2023-02-05T03:31:01.974Z,5.40
2023-02-05T03:33:49.536Z,5.18
2023-02-05T03:36:22.565Z,5.85
2023-02-05T03:39:02.854Z,6.43
2023-02-05T03:41:58.474Z,5.63
2023-02-05T03:44:51.726Z,5.35
2023-02-05T03:47:23.624Z,5.25
2023-02-05T03:50:09.534Z,5.63
2023-02-05T03:52:42.698Z,5.28
2023-02-05T03:55:22.387Z,5.82
2023-02-05T03:57:52.485Z,5.88
2023-02-05T04:00:19.795Z,5.18
2023-02-05T04:02:47.141Z,4.82
2023-02-05T04:05:14.257Z,5.53
2023-02-05T04:07:44.649Z,5.10
2023-02-05T04:10:11.609Z,5.30
2023-02-05T04:12:38.718Z,5.25
2023-02-05T04:15:09.246Z,5.60
2023-02-05T04:17:36.959Z,7.40
2023-02-05T04:20:05.299Z,6.85
2023-02-05T04:22:32.339Z,6.00
2023-02-05T04:24:59.152Z,5.97
2023-02-05T04:27:26.102Z,5.57
2023-02-05T04:29:52.921Z,5.93
2023-02-05T04:32:19.928Z,5.95
2023-02-05T04:34:46.905Z,5.05
2023-02-05T04:37:13.871Z,5.82
2023-02-05T04:39:40.775Z,5.72
2023-02-05T04:42:07.748Z,5.85
2023-02-05T04:44:34.633Z,6.70
2023-02-05T04:47:01.550Z,5.35
2023-02-05T04:49:28.587Z,6.10
2023-02-05T04:51:55.518Z,6.40
2023-02-05T04:54:22.497Z,6.40
2023-02-05T04:56:49.519Z,6.05
2023-02-05T04:59:16.682Z,7.15
2023-02-05T05:01:44.552Z,6.63
2023-02-05T05:04:11.696Z,7.32
2023-02-05T05:06:38.654Z,7.78
2023-02-05T05:09:05.543Z,8.18
2023-02-05T05:11:32.576Z,8.25
2023-02-05T05:13:59.579Z,8.75
2023-02-05T05:16:26.615Z,9.73
2023-02-05T05:18:53.635Z,10.63
2023-02-05T05:21:20.552Z,10.30
2023-02-05T05:23:47.471Z,11.60
2023-02-05T05:26:14.333Z,11.90
2023-02-05T05:28:41.384Z,12.18
2023-02-05T05:31:11.365Z,11.32
2023-02-05T05:33:38.467Z,10.75
2023-02-05T05:36:06.726Z,11.23
2023-02-05T05:38:33.576Z,10.68
2023-02-05T05:41:19.083Z,9.50
2023-02-05T05:43:49.128Z,8.65
2023-02-05T05:46:22.943Z,6.95
2023-02-05T05:49:08.073Z,6.63
2023-02-05T05:51:35.182Z,4.97
2023-02-05T05:54:02.343Z,4.63
2023-02-05T05:56:29.242Z,4.28
2023-02-05T05:58:56.541Z,3.22
2023-02-05T06:01:23.531Z,3.25
2023-02-05T06:03:50.946Z,3.03
2023-02-05T06:06:18.098Z,2.80
2023-02-05T06:08:45.194Z,2.35
2023-02-05T06:11:12.197Z,2.35
2023-02-05T06:13:39.306Z,2.15
2023-02-05T06:16:06.482Z,2.40
2023-02-05T06:18:33.743Z,2.05
2023-02-05T06:21:02.254Z,2.55
2023-02-05T06:23:29.218Z,3.30
2023-02-05T06:25:56.172Z,2.53
2023-02-05T06:28:23.045Z,2.40
2023-02-05T06:30:49.860Z,2.33
2023-02-05T06:33:17.122Z,2.20
2023-02-05T06:35:44.077Z,2.28
2023-02-05T06:38:10.932Z,2.22
2023-02-05T06:40:37.972Z,2.40
2023-02-05T06:43:04.918Z,2.42
2023-02-05T06:45:32.155Z,2.97
2023-02-05T06:47:59.628Z,2.53
2023-02-05T06:50:28.797Z,2.33
2023-02-05T06:52:55.898Z,2.17
2023-02-05T06:55:22.905Z,1.98
2023-02-05T06:57:49.884Z,2.28
2023-02-05T07:00:20.420Z,2.92
2023-02-05T07:02:50.643Z,2.33
2023-02-05T07:05:17.688Z,2.30
2023-02-05T07:07:45.902Z,2.17
2023-02-05T07:10:13.421Z,2.22
2023-02-05T07:12:43.260Z,2.30
2023-02-05T07:15:12.483Z,2.50
2023-02-05T07:17:41.917Z,2.58
2023-02-05T07:20:09.309Z,2.97
2023-02-05T07:22:41.885Z,3.55
2023-02-05T07:25:09.114Z,2.92
2023-02-05T07:27:35.939Z,2.80
2023-02-05T07:30:10.223Z,2.38
2023-02-05T07:32:37.256Z,2.05
2023-02-05T07:35:04.415Z,2.28
2023-02-05T07:37:31.236Z,2.13
2023-02-05T07:39:58.067Z,2.20
2023-02-05T07:42:24.902Z,2.08
2023-02-05T07:44:51.789Z,2.10
2023-02-05T07:47:18.670Z,2.30
2023-02-05T07:49:45.755Z,2.47
2023-02-05T07:52:12.852Z,1.70
2023-02-05T07:54:40.111Z,2.13
2023-02-05T07:57:07.178Z,2.78
2023-02-05T07:59:34.151Z,2.38
2023-02-05T08:02:01.009Z,3.35
2023-02-05T08:04:28.249Z,2.58
2023-02-05T08:06:55.245Z,2.85
2023-02-05T08:09:22.248Z,3.35
2023-02-05T08:11:53.619Z,2.88
2023-02-05T08:14:27.538Z,2.85
2023-02-05T08:17:04.658Z,3.28
2023-02-05T08:19:31.810Z,2.85
2023-02-05T08:21:58.618Z,3.00
2023-02-05T08:24:25.477Z,2.63
2023-02-05T08:26:52.559Z,2.28
2023-02-05T08:29:19.635Z,2.15
2023-02-05T08:31:46.526Z,2.55
2023-02-05T08:34:13.453Z,2.60
2023-02-05T08:36:40.355Z,2.72
2023-02-05T08:39:07.350Z,2.63
2023-02-05T08:41:34.680Z,2.53
2023-02-05T08:44:01.564Z,3.30
2023-02-05T08:46:37.443Z,2.60
2023-02-05T08:49:10.759Z,2.72
2023-02-05T08:51:37.628Z,3.63
2023-02-05T08:54:06.060Z,3.00
2023-02-05T08:56:33.053Z,2.83
2023-02-05T08:58:59.846Z,2.83
2023-02-05T09:01:27.230Z,3.13
2023-02-05T09:03:54.332Z,2.83
2023-02-05T09:06:21.384Z,2.88
2023-02-05T09:08:48.897Z,3.42
2023-02-05T09:11:26.793Z,2.75
2023-02-05T09:13:54.497Z,3.28
2023-02-05T09:16:21.662Z,3.35
2023-02-05T09:18:48.798Z,3.38
2023-02-05T09:21:15.747Z,3.17
2023-02-05T09:23:42.694Z,3.60
2023-02-05T09:26:09.651Z,2.50
2023-02-05T09:28:37.554Z,3.38
2023-02-05T09:31:14.126Z,3.42
2023-02-05T09:33:41.339Z,3.05
2023-02-05T09:36:17.094Z,3.40
2023-02-05T09:38:45.674Z,3.25
2023-02-05T09:41:26.197Z,2.95
2023-02-05T09:44:13.174Z,3.33
2023-02-05T09:47:05.882Z,3.45
2023-02-05T09:49:35.259Z,3.45
2023-02-05T09:52:17.891Z,3.95
2023-02-05T09:54:50.479Z,3.22
2023-02-05T09:57:28.813Z,3.78
2023-02-05T09:59:56.182Z,3.33
2023-02-05T10:02:30.523Z,3.85
2023-02-05T10:04:57.546Z,3.58
2023-02-05T10:07:30.454Z,4.00
2023-02-05T10:10:03.484Z,3.95
2023-02-05T10:12:50.611Z,3.05
2023-02-05T10:15:35.718Z,3.20
2023-02-05T10:18:21.177Z,3.45
2023-02-05T10:21:07.369Z,4.85
2023-02-05T10:23:49.427Z,4.00
2023-02-05T10:26:20.666Z,3.70
2023-02-05T10:29:05.075Z,3.65
2023-02-05T10:31:59.156Z,3.38
2023-02-05T10:34:57.042Z,3.72
2023-02-05T10:37:43.308Z,3.78
2023-02-05T10:40:15.831Z,4.03
2023-02-05T10:42:51.353Z,3.92
2023-02-05T10:45:27.922Z,4.20
2023-02-05T10:48:13.021Z,3.20
2023-02-05T10:51:04.595Z,3.80
2023-02-05T10:53:36.259Z,4.95
2023-02-05T10:56:04.809Z,3.83
2023-02-05T10:58:38.758Z,3.58
2023-02-05T11:01:15.211Z,3.60
2023-02-05T11:03:53.739Z,4.07
2023-02-05T11:06:24.437Z,4.10
2023-02-05T11:08:51.957Z,3.65
2023-02-05T11:11:40.113Z,3.42
2023-02-05T11:14:08.132Z,4.80
2023-02-05T11:16:45.558Z,3.55
2023-02-05T11:19:26.831Z,4.15
2023-02-05T11:22:02.176Z,3.70
2023-02-05T11:24:41.553Z,3.67
2023-02-05T11:27:27.007Z,3.55
2023-02-05T11:29:55.771Z,4.05
2023-02-05T11:32:37.727Z,3.90
2023-02-05T11:35:10.374Z,4.40
2023-02-05T11:37:40.514Z,3.13
2023-02-05T11:40:26.210Z,3.85
2023-02-05T11:43:05.196Z,3.65
2023-02-05T11:45:33.816Z,3.90
2023-02-05T11:48:03.362Z,2.97
2023-02-05T11:50:32.886Z,3.83
2023-02-05T11:53:16.537Z,2.72
2023-02-05T11:55:44.342Z,4.00
2023-02-05T11:58:36.479Z,3.80
2023-02-05T12:01:23.999Z,4.13
2023-02-05T12:04:16.630Z,3.42
2023-02-05T12:06:51.543Z,3.20
2023-02-05T12:09:24.398Z,3.42
2023-02-05T12:12:18.846Z,3.47
2023-02-05T12:15:16.516Z,3.15
2023-02-05T12:18:02.891Z,3.30
2023-02-05T12:20:42.400Z,3.53
2023-02-05T12:23:28.047Z,2.63
2023-02-05T12:26:22.025Z,4.07
2023-02-05T12:29:25.294Z,3.80
2023-02-05T12:32:00.972Z,3.65
2023-02-05T12:34:49.259Z,3.35
2023-02-05T12:37:18.844Z,4.55
2023-02-05T12:39:52.274Z,4.60
2023-02-05T12:42:37.480Z,3.60
2023-02-05T12:45:19.937Z,3.00
2023-02-05T12:48:08.030Z,4.05
2023-02-05T12:50:43.989Z,3.15
2023-02-05T12:53:43.264Z,3.80
2023-02-05T12:56:24.872Z,3.13
2023-02-05T12:59:06.867Z,4.57
2023-02-05T13:01:44.306Z,3.55
2023-02-05T13:04:29.754Z,3.95
2023-02-05T13:07:18.617Z,3.63
2023-02-05T13:09:54.044Z,4.10
2023-02-05T13:12:26.624Z,3.88
2023-02-05T13:15:21.739Z,3.72
2023-02-05T13:18:11.672Z,3.50
2023-02-05T13:21:01.810Z,3.60
2023-02-05T13:23:48.342Z,3.90
2023-02-05T13:26:35.952Z,3.22
2023-02-05T13:29:14.239Z,3.08
2023-02-05T13:31:48.424Z,3.38
2023-02-05T13:34:16.891Z,3.78
2023-02-05T13:37:13.161Z,4.03
2023-02-05T13:40:04.280Z,4.70
2023-02-05T13:43:09.574Z,3.60
2023-02-05T13:45:51.429Z,3.78
2023-02-05T13:48:57.550Z,3.72
2023-02-05T13:52:04.014Z,3.70
2023-02-05T13:54:58.494Z,3.88
2023-02-05T13:57:31.522Z,3.40
2023-02-05T13:59:59.338Z,3.15
2023-02-05T14:02:35.052Z,4.80
2023-02-05T14:05:04.102Z,4.00
2023-02-05T14:07:36.524Z,3.33
2023-02-05T14:10:04.216Z,3.38
2023-02-05T14:12:34.844Z,3.30
2023-02-05T14:15:20.101Z,3.92
2023-02-05T14:17:47.015Z,3.15
2023-02-05T14:20:26.198Z,3.85
2023-02-05T14:22:58.229Z,3.50
2023-02-05T14:25:42.763Z,3.50
2023-02-05T14:28:15.781Z,4.50
2023-02-05T14:30:53.990Z,3.55
2023-02-05T14:33:43.216Z,3.78
2023-02-05T14:36:17.125Z,3.88
2023-02-05T14:39:05.684Z,3.30
2023-02-05T14:41:44.310Z,3.50
2023-02-05T14:44:19.061Z,3.05
2023-02-05T14:47:04.329Z,3.80
2023-02-05T14:49:33.823Z,3.25
2023-02-05T14:52:04.026Z,3.88
2023-02-05T14:54:42.924Z,3.40
2023-02-05T14:57:25.320Z,4.00
2023-02-05T15:00:00.362Z,3.83
2023-02-05T15:03:04.794Z,3.63
2023-02-05T15:05:42.375Z,3.45
2023-02-05T15:08:18.693Z,3.85
2023-02-05T15:11:10.670Z,3.70
2023-02-05T15:13:37.563Z,3.20
2023-02-05T15:16:08.724Z,3.35
2023-02-05T15:18:51.826Z,4.13
2023-02-05T15:21:25.045Z,4.35
2023-02-05T15:24:13.895Z,3.30
2023-02-05T15:27:11.810Z,3.63
2023-02-05T15:29:45.422Z,3.13
2023-02-05T15:32:20.383Z,3.63
2023-02-05T15:34:55.499Z,3.80
2023-02-05T15:37:31.370Z,4.03
2023-02-05T15:40:18.867Z,3.42
2023-02-05T15:42:50.061Z,3.75
2023-02-05T15:45:26.196Z,4.10
2023-02-05T15:48:12.007Z,3.70
2023-02-05T15:50:58.085Z,4.57
2023-02-05T15:53:39.292Z,3.55
2023-02-05T15:56:32.874Z,3.63
2023-02-05T15:59:11.966Z,5.13
2023-02-05T16:01:51.229Z,4.57
2023-02-05T16:04:37.460Z,4.03
2023-02-05T16:07:22.316Z,3.67
2023-02-05T16:09:54.039Z,3.40
2023-02-05T16:12:21.209Z,3.38
2023-02-05T16:15:01.600Z,4.05
2023-02-05T16:17:44.672Z,3.72
2023-02-05T16:20:23.558Z,3.83
2023-02-05T16:22:59.042Z,3.50
2023-02-05T16:25:42.014Z,4.00
2023-02-05T16:28:23.619Z,3.78
2023-02-05T16:30:54.718Z,5.00
2023-02-05T16:33:30.783Z,4.30
2023-02-05T16:36:00.639Z,3.92
2023-02-05T16:38:28.349Z,3.55
2023-02-05T16:41:04.395Z,3.85
2023-02-05T16:43:41.063Z,4.18
2023-02-05T16:46:08.334Z,4.85
2023-02-05T16:48:39.430Z,4.68
2023-02-05T16:51:06.453Z,4.20
2023-02-05T16:53:36.647Z,4.18
2023-02-05T16:56:20.758Z,4.13
2023-02-05T16:58:57.514Z,4.20
2023-02-05T17:01:38.937Z,4.40
2023-02-05T17:04:06.450Z,4.18
2023-02-05T17:06:38.444Z,5.57
2023-02-05T17:09:05.885Z,4.28
2023-02-05T17:11:38.152Z,5.35
2023-02-05T17:14:31.714Z,5.50
2023-02-05T17:17:14.779Z,4.85
2023-02-05T17:19:41.836Z,4.47
2023-02-05T17:22:14.948Z,4.10
2023-02-05T17:24:48.055Z,4.47
2023-02-05T17:27:36.602Z,4.82
2023-02-05T17:30:06.950Z,5.07
2023-02-05T17:32:33.786Z,4.78
2023-02-05T17:35:00.624Z,4.38
2023-02-05T17:37:27.517Z,4.13
2023-02-05T17:39:55.678Z,4.63
2023-02-05T17:42:24.981Z,4.78
2023-02-05T17:44:53.374Z,5.30
2023-02-05T17:47:20.506Z,5.03
2023-02-05T17:49:47.892Z,5.03
2023-02-05T17:52:15.484Z,6.20
2023-02-05T17:54:42.932Z,5.25
2023-02-05T17:57:20.250Z,5.22
2023-02-05T17:59:48.575Z,4.72
2023-02-05T18:02:16.656Z,4.90
2023-02-05T18:04:49.164Z,4.72
2023-02-05T18:07:29.610Z,5.25
2023-02-05T18:09:57.308Z,5.30
2023-02-05T18:12:24.934Z,5.38
2023-02-05T18:14:51.807Z,4.60
2023-02-05T18:17:18.964Z,4.97
2023-02-05T18:19:46.266Z,4.95
2023-02-05T18:22:13.201Z,5.68
2023-02-05T18:24:40.059Z,5.07
2023-02-05T18:27:08.282Z,4.90
2023-02-05T18:29:36.055Z,6.07
2023-02-05T18:32:03.197Z,6.40
2023-02-05T18:34:30.490Z,6.53
2023-02-05T18:36:57.741Z,6.72
2023-02-05T18:39:28.593Z,6.82
2023-02-05T18:41:56.774Z,5.90
2023-02-05T18:44:24.524Z,6.82
2023-02-05T18:46:51.811Z,5.95
2023-02-05T18:49:19.027Z,6.28
2023-02-05T18:51:46.160Z,5.50
2023-02-05T18:54:13.212Z,6.10
2023-02-05T18:56:40.336Z,6.70
2023-02-05T18:59:11.028Z,5.63
2023-02-05T19:01:39.877Z,6.28
2023-02-05T19:04:10.450Z,5.38
2023-02-05T19:06:37.424Z,5.90
2023-02-05T19:09:04.591Z,5.88
2023-02-05T19:11:31.930Z,5.35
2023-02-05T19:14:04.820Z,5.78
2023-02-05T19:16:32.926Z,5.32
2023-02-05T19:18:59.972Z,5.53
2023-02-05T19:21:29.446Z,5.68
2023-02-05T19:23:58.634Z,6.30
2023-02-05T19:26:29.587Z,5.88
2023-02-05T19:29:01.976Z,5.07
2023-02-05T19:31:31.981Z,4.70
2023-02-05T19:34:00.227Z,5.55
2023-02-05T19:36:27.894Z,5.10
2023-02-05T19:38:54.879Z,5.40
2023-02-05T19:41:24.611Z,6.05
2023-02-05T19:43:55.890Z,5.40
2023-02-05T19:46:35.871Z,5.20
2023-02-05T19:49:05.939Z,5.57
2023-02-05T19:51:33.935Z,6.47
2023-02-05T19:54:03.557Z,7.57
2023-02-05T19:56:32.443Z,4.80
2023-02-05T19:59:00.138Z,6.03
2023-02-05T20:01:32.753Z,5.95
2023-02-05T20:04:12.142Z,6.63
2023-02-05T20:06:40.796Z,6.35
2023-02-05T20:09:10.883Z,4.95
2023-02-05T20:11:42.535Z,5.75
2023-02-05T20:14:10.651Z,5.68
2023-02-05T20:16:40.351Z,5.55
2023-02-05T20:19:10.378Z,6.25
2023-02-05T20:21:38.561Z,5.75
2023-02-05T20:24:05.589Z,5.43
2023-02-05T20:26:32.505Z,5.45
2023-02-05T20:29:17.940Z,5.88
2023-02-05T20:31:48.091Z,5.47
2023-02-05T20:34:22.656Z,5.78
2023-02-05T20:37:02.210Z,5.43
2023-02-05T20:39:30.523Z,5.65
2023-02-05T20:41:59.145Z,6.00
2023-02-05T20:44:32.355Z,5.90
2023-02-05T20:46:59.266Z,5.35
2023-02-05T20:49:26.408Z,5.22
2023-02-05T20:51:54.123Z,5.43
2023-02-05T20:54:22.320Z,4.50
2023-02-05T20:56:57.212Z,5.90
2023-02-05T20:59:24.764Z,5.38
2023-02-05T21:01:51.700Z,5.20
2023-02-05T21:04:21.234Z,5.18
2023-02-05T21:06:48.620Z,5.57
2023-02-05T21:09:16.748Z,5.47
2023-02-05T21:11:43.674Z,5.55
2023-02-05T21:14:10.584Z,5.47
2023-02-05T21:16:38.107Z,5.40
2023-02-05T21:19:07.429Z,5.82
2023-02-05T21:21:36.578Z,5.07
2023-02-05T21:24:09.526Z,6.40
2023-02-05T21:26:39.274Z,4.70
2023-02-05T21:29:12.596Z,5.22
2023-02-05T21:31:44.066Z,5.38
2023-02-05T21:34:17.777Z,5.60
2023-02-05T21:36:47.316Z,5.65
2023-02-05T21:39:17.604Z,6.20
2023-02-05T21:41:47.980Z,4.72
2023-02-05T21:44:15.283Z,5.38
2023-02-05T21:46:42.248Z,5.57
2023-02-05T21:49:10.673Z,5.38
2023-02-05T21:51:37.819Z,5.72
2023-02-05T21:54:06.026Z,5.25
2023-02-05T21:56:35.489Z,6.10
2023-02-05T21:59:09.371Z,5.93
2023-02-05T22:01:37.046Z,5.53
2023-02-05T22:04:10.659Z,6.00
2023-02-05T22:06:38.192Z,4.82
2023-02-05T22:09:08.041Z,5.18
2023-02-05T22:11:35.504Z,5.80
2023-02-05T22:14:02.551Z,5.70
2023-02-05T22:16:32.212Z,4.82
2023-02-05T22:19:00.008Z,5.18
2023-02-05T22:21:32.956Z,4.97
2023-02-05T22:24:01.943Z,6.05
2023-02-05T22:26:34.876Z,5.90
2023-02-05T22:29:04.533Z,6.20
2023-02-05T22:31:32.010Z,5.45
2023-02-05T22:33:59.589Z,6.20
2023-02-05T22:36:29.476Z,5.30
2023-02-05T22:38:56.666Z,6.43
2023-02-05T22:41:27.172Z,6.07
2023-02-05T22:43:55.742Z,6.72
2023-02-05T22:46:25.005Z,6.57
2023-02-05T22:48:52.843Z,6.18
2023-02-05T22:51:22.685Z,5.57
2023-02-05T22:53:50.094Z,4.78
2023-02-05T22:56:17.707Z,5.43
2023-02-05T22:58:49.534Z,5.90
2023-02-05T23:01:19.712Z,5.80
2023-02-05T23:03:49.334Z,5.82
2023-02-05T23:06:21.137Z,6.53
2023-02-05T23:09:15.560Z,4.80
2023-02-05T23:11:42.793Z,5.22
2023-02-05T23:14:10.772Z,6.60
2023-02-05T23:16:40.325Z,5.18
2023-02-05T23:19:11.601Z,5.18
2023-02-05T23:21:40.384Z,5.80
2023-02-05T23:24:08.347Z,6.35
2023-02-05T23:26:39.990Z,6.43
2023-02-05T23:29:07.764Z,7.03
2023-02-05T23:31:35.150Z,6.10
2023-02-05T23:34:02.469Z,5.38
2023-02-05T23:36:29.498Z,6.43
2023-02-05T23:38:56.540Z,7.13
2023-02-05T23:41:35.507Z,9.25
2023-02-05T23:44:09.988Z,6.88
2023-02-05T23:46:38.404Z,7.68
2023-02-05T23:49:05.812Z,7.10
2023-02-05T23:51:33.909Z,7.32
2023-02-05T23:54:00.900Z,7.10
2023-02-05T23:56:27.800Z,7.53
2023-02-05T23:58:55.053Z,6.63
